»·PEaware :: N8833D CYVR-KSEA

N8833D :: CYVR-KSEA

FLIGHT INFORMATION

Flight Status: Arrived
Operator: Privately registered:
United States
More flights under this callsign
Pilot: Cooper L. (8467)
Aircraft: AIRBUS A320
(A320)
More flights by this aircraft type
Origin: CYVR Vancouver Intl
Canada
Destination: KSEA Seattle-Tacoma Intl
United States
More flights between these airports :: More routes between these airports
Route: TOU MARNR4
File this flight plan on PilotEdge
Remarks:
Altitude:
(Current/Filed)
24,000ft
Speed:
(Current/Filed)
450kts
Departed: 16-Sep-15 06:18 PM
Arrived: 16-Sep-15 07:19 PM
Distance/Time
Traveled:
111nm/1:01
Distance/Time
To Go:
Arrived

Flight Plot

Page will automatically refresh every two minutes.


Map Options




Map Legend


Flown Route
Filed Route
Departure Airport
Arrival Airport
Navaid (VOR, NDB)
Fix

Horizontal Profiles

Position Reports

Time Latitude Longitude Heading Altitude Ground
Speed
16-Sep-15 18:13 49.197512 -123.173579 295 22ft 0kts
16-Sep-15 18:14 49.197512 -123.173579 295 22ft 0kts
16-Sep-15 18:15 49.197512 -123.173579 295 22ft 0kts
16-Sep-15 18:16 49.197512 -123.173579 295 22ft 0kts
16-Sep-15 18:17 49.197512 -123.173579 295 22ft 0kts
16-Sep-15 18:18 49.197512 -123.173579 295 22ft 0kts
16-Sep-15 18:19 49.197512 -123.173579 295 22ft 0kts
16-Sep-15 18:20 49.197512 -123.173579 295 22ft 0kts
16-Sep-15 18:21 49.197512 -123.173579 295 22ft 0kts
16-Sep-15 18:22 49.197505 -123.173554 295 22ft 0kts
16-Sep-15 18:23 49.196977 -123.172354 348 22ft 0kts
16-Sep-15 18:24 49.196637 -123.172847 92 22ft 0kts
16-Sep-15 18:25 49.196637 -123.172847 92 22ft 0kts
16-Sep-15 18:26 49.196637 -123.172847 92 22ft 0kts
16-Sep-15 18:27 49.196637 -123.172847 92 22ft 0kts
16-Sep-15 18:28 49.196637 -123.172847 92 22ft 0kts
16-Sep-15 18:29 49.196637 -123.172847 92 22ft 0kts
16-Sep-15 18:30 49.197832 -123.171138 3 22ft 25kts
16-Sep-15 18:31 49.200623 -123.179904 279 22ft 43kts
16-Sep-15 18:32 49.201471 -123.187850 280 22ft 11kts
16-Sep-15 18:33 49.203460 -123.200994 328 22ft 20kts
16-Sep-15 18:34 49.204120 -123.201250 2 22ft 0kts
16-Sep-15 18:35 49.205029 -123.200588 83 22ft 10kts
16-Sep-15 18:36 49.200288 -123.161156 101 576ft 176kts
16-Sep-15 18:37 49.163219 -123.147188 217 3096ft 209kts
16-Sep-15 18:38 49.133015 -123.212543 239 5526ft 254kts
16-Sep-15 18:39 49.097794 -123.302516 238 8676ft 289kts
16-Sep-15 18:40 49.055309 -123.405779 236 12426ft 309kts
16-Sep-15 18:41 49.002766 -123.505361 227 16285ft 311kts
16-Sep-15 18:42 48.947080 -123.595665 224 19562ft 299kts
16-Sep-15 18:43 48.886752 -123.690172 226 20475ft 360kts
16-Sep-15 18:44 48.816651 -123.803868 226 20716ft 432kts
16-Sep-15 18:45 48.733446 -123.938259 226 22583ft 454kts
16-Sep-15 18:46 48.646043 -124.078662 226 23916ft 482kts
16-Sep-15 18:47 48.556908 -124.222279 226 23915ft 470kts
16-Sep-15 18:48 48.470508 -124.359673 226 23901ft 447kts
16-Sep-15 18:49 48.371607 -124.453793 177 23906ft 447kts
16-Sep-15 18:50 48.279788 -124.359273 127 23900ft 447kts
16-Sep-15 18:51 48.239706 -124.199235 103 23906ft 448kts
16-Sep-15 18:52 48.213620 -124.023655 101 23910ft 448kts
16-Sep-15 18:53 48.189514 -123.857341 102 23917ft 432kts
16-Sep-15 18:54 48.165645 -123.693307 102 23921ft 424kts
16-Sep-15 18:55 48.141742 -123.528287 102 22733ft 425kts
16-Sep-15 18:56 48.122534 -123.395946 101 21608ft 426kts
16-Sep-15 18:57 48.097083 -123.228463 101 20187ft 430kts
16-Sep-15 18:58 48.120038 -123.071020 35 18802ft 428kts
16-Sep-15 18:59 48.230779 -123.020718 34 17382ft 448kts
16-Sep-15 19:00 48.259517 -122.867008 121 16009ft 389kts
16-Sep-15 19:01 48.184955 -122.799051 156 14609ft 293kts
16-Sep-15 19:02 48.116201 -122.751822 157 13341ft 285kts
16-Sep-15 19:03 48.053223 -122.709845 157 11448ft 271kts
16-Sep-15 19:04 47.986372 -122.665469 157 8912ft 262kts
16-Sep-15 19:05 47.923555 -122.622632 157 6398ft 262kts
16-Sep-15 19:06 47.864277 -122.581844 157 5864ft 232kts
16-Sep-15 19:07 47.800315 -122.538506 157 5891ft 254kts
16-Sep-15 19:08 47.735904 -122.495437 157 5888ft 253kts
16-Sep-15 19:09 47.671102 -122.473977 219 5650ft 237kts
16-Sep-15 19:10 47.668399 -122.565258 290 5715ft 248kts
16-Sep-15 19:11 47.720292 -122.629484 336 5903ft 251kts
16-Sep-15 19:12 47.784378 -122.669853 348 5896ft 251kts
16-Sep-15 19:13 47.811198 -122.601117 128 5907ft 258kts
16-Sep-15 19:14 47.760124 -122.528052 150 5891ft 254kts
16-Sep-15 19:15 47.696181 -122.485732 161 5885ft 252kts
16-Sep-15 19:16 47.636107 -122.445579 139 5457ft 239kts
16-Sep-15 19:17 47.588971 -122.383661 138 2771ft 261kts
16-Sep-15 19:18 47.540484 -122.319534 139 1878ft 181kts
16-Sep-15 19:19 47.500952 -122.318821 178 1243ft 147kts
16-Sep-15 19:20 47.460953 -122.318155 181 469ft 145kts
16-Sep-15 19:21 47.426204 -122.342488 251 1953ft 220kts
16-Sep-15 19:22 47.462168 -122.404528 328 2956ft 221kts
16-Sep-15 19:23 47.519760 -122.452821 330 3254ft 244kts
16-Sep-15 19:24 47.576786 -122.497660 332 3546ft 244kts
16-Sep-15 19:25 47.636161 -122.505227 57 3740ft 226kts
16-Sep-15 19:26 47.623225 -122.413016 114 2711ft 246kts
16-Sep-15 19:27 47.585187 -122.351739 158 2523ft 166kts
16-Sep-15 19:28 47.544140 -122.325191 159 2251ft 176kts
16-Sep-15 19:29 47.498457 -122.318085 179 1146ft 156kts
16-Sep-15 19:30 47.458031 -122.317958 180 442ft 123kts
16-Sep-15 19:31 47.448311 -122.317130 147 441ft 46kts
16-Sep-15 19:32 47.445182 -122.309928 149 441ft 25kts
16-Sep-15 19:33 47.440004 -122.305807 99 441ft 11kts
16-Sep-15 19:34 47.439547 -122.300617 210 441ft 6kts
16-Sep-15 19:35 47.439315 -122.300922 225 441ft 0kts
16-Sep-15 19:36 47.439271 -122.300991 226 441ft 0kts

Navigation Log

Ident Type
1. CYVR Airport
2. TOU Navaid
3. KSEA Airport